Time;durP1;ratioP1;P1;durP2;ratioP2;P2;SDS_P1;SDS_P2;PMS_P1;PMS_P2;Temp;Humidity;BMP_temperature;BMP_pressure;BME280_temperature;BME280_humidity;BME280_pressure;Samples;Min_cycle;Max_cycle;Signal;HPM_P1;HPM_P2
2024/02/24 00:01:05;;;;;;;16.38;11.25;;;;;;;;;;4980539;28;20088;-92
2024/02/24 00:03:31;;;;;;;17.65;11.90;;;;;;;;;;4981188;28;20038;-92
2024/02/24 00:06:00;;;;;;;17.73;11.63;;;;;;;;;;4956559;28;20043;-91
2024/02/24 00:08:29;;;;;;;17.85;12.00;;;;;;;;;;4956942;29;20047;-91
2024/02/24 00:10:55;;;;;;;21.40;13.60;;;;;;;;;;4957792;29;20039;-92
2024/02/24 00:13:21;;;;;;;19.80;13.00;;;;;;;;;;4960972;28;20033;-92
2024/02/24 00:15:50;;;;;;;21.58;13.85;;;;;;;;;;4961762;28;20026;-92
2024/02/24 00:18:21;;;;;;;18.58;12.95;;;;;;;;;;4961766;28;20479;-91
2024/02/24 00:20:53;;;;;;;18.25;11.63;;;;;;;;;;4961176;28;20052;-92
2024/02/24 00:23:19;;;;;;;18.15;12.63;;;;;;;;;;4960761;28;20110;-92
2024/02/24 00:25:45;;;;;;;23.52;14.50;;;;;;;;;;4961394;28;20034;-92
2024/02/24 00:28:19;;;;;;;18.15;11.45;;;;;;;;;;4964616;28;20007;-92
2024/02/24 00:30:45;;;;;;;;;;;;;;;;;;4970196;28;20058;-91
2024/02/24 00:36:14;;;;;;;13.68;10.50;;;;;;;;;;4977884;28;20503;-93
2024/02/24 00:38:46;;;;;;;16.10;11.25;;;;;;;;;;4960273;28;20027;-93
2024/02/24 00:41:16;;;;;;;17.23;12.10;;;;;;;;;;4960023;28;20484;-92
2024/02/24 00:43:42;;;;;;;18.00;12.07;;;;;;;;;;4960481;28;20030;-92
2024/02/24 00:46:08;;;;;;;17.92;12.63;;;;;;;;;;4960358;28;20023;-93
2024/02/24 00:48:44;;;;;;;23.40;17.27;;;;;;;;;;4952244;28;20147;-92
2024/02/24 00:51:10;;;;;;;20.23;12.75;;;;;;;;;;4960726;28;20047;-93
2024/02/24 00:53:48;;;;;;;19.13;13.77;;;;;;;;;;4944248;29;20035;-92
2024/02/24 00:56:17;;;;;;;13.90;10.18;;;;;;;;;;4942017;29;20031;-92
2024/02/24 00:58:46;;;;;;;15.88;11.27;;;;;;;;;;4958634;28;20027;-91
2024/02/24 01:01:18;;;;;;;17.30;12.23;;;;;;;;;;4959777;28;20045;-92
2024/02/24 01:03:45;;;;;;;19.55;12.00;;;;;;;;;;4962136;28;20403;-93
2024/02/24 01:06:41;;;;;;;;;;;;;;;;;;;;;
2024/02/24 01:08:59;;;;;;;16.65;12.27;;;;;;;;;;4958501;28;20471;-92
2024/02/24 01:11:32;;;;;;;20.25;12.35;;;;;;;;;;4956563;28;20062;-91
2024/02/24 01:20:14;;;;;;;16.58;11.48;;;;;;;;;;4976275;28;20053;-93
2024/02/24 01:23:00;;;;;;;18.67;13.05;;;;;;;;;;4960513;28;20509;-93
2024/02/24 01:28:30;;;;;;;20.75;13.60;;;;;;;;;;4977266;28;20054;-93
2024/02/24 01:30:56;;;;;;;21.00;14.95;;;;;;;;;;4958658;28;20505;-92
2024/02/24 01:33:25;;;;;;;21.08;14.23;;;;;;;;;;4959406;28;20113;-92
2024/02/24 01:35:52;;;;;;;22.52;14.63;;;;;;;;;;4959230;28;20057;-93
2024/02/24 01:38:24;;;;;;;22.17;14.30;;;;;;;;;;4960004;28;20038;-92
2024/02/24 01:40:53;;;;;;;25.27;14.73;;;;;;;;;;4959244;28;20175;-92
2024/02/24 01:43:29;;;;;;;23.05;14.82;;;;;;;;;;4959523;28;20027;-92
2024/02/24 01:49:01;;;;;;;14.68;10.10;;;;;;;;;;4976269;28;20092;-93
2024/02/24 01:51:27;;;;;;;14.82;9.52;;;;;;;;;;4958721;28;20049;-94
2024/02/24 01:54:03;;;;;;;10.15;7.32;;;;;;;;;;4959163;28;20038;-93
2024/02/24 01:56:29;;;;;;;7.72;5.38;;;;;;;;;;4960081;28;20054;-93
2024/02/24 01:58:55;;;;;;;8.02;4.60;;;;;;;;;;4962519;28;20090;-92
2024/02/24 02:01:24;;;;;;;6.13;4.18;;;;;;;;;;5170906;23;20034;-92
2024/02/24 02:03:53;;;;;;;5.32;3.60;;;;;;;;;;5049627;28;20021;-92
2024/02/24 02:09:29;;;;;;;5.95;3.78;;;;;;;;;;5035208;28;20064;-93
2024/02/24 02:12:01;;;;;;;6.05;3.67;;;;;;;;;;5033663;28;20053;-93
2024/02/24 02:14:49;;;;;;;5.00;3.13;;;;;;;;;;5036205;28;20041;-92
2024/02/24 02:17:18;;;;;;;4.93;3.08;;;;;;;;;;5034370;28;20033;-93
2024/02/24 02:19:48;;;;;;;4.38;3.03;;;;;;;;;;5043997;28;20016;-91
2024/02/24 02:22:17;;;;;;;3.75;2.63;;;;;;;;;;5056411;28;20038;-92
2024/02/24 02:24:50;;;;;;;4.82;3.30;;;;;;;;;;5041298;28;20034;-92
2024/02/24 02:27:16;;;;;;;4.63;3.67;;;;;;;;;;5035429;28;20083;-93
2024/02/24 02:30:04;;;;;;;3.38;2.50;;;;;;;;;;5049282;23;20055;-94
2024/02/24 02:32:33;;;;;;;4.30;3.00;;;;;;;;;;4974793;28;20027;-93
2024/02/24 02:34:59;;;;;;;3.75;2.65;;;;;;;;;;4981746;28;20030;-92
2024/02/24 02:37:31;;;;;;;4.45;3.10;;;;;;;;;;4977685;28;20035;-93
2024/02/24 02:39:57;;;;;;;6.68;3.10;;;;;;;;;;4987544;28;20483;-93
2024/02/24 02:42:29;;;;;;;4.10;2.80;;;;;;;;;;4974155;28;20031;-93
2024/02/24 02:45:03;;;;;;;5.18;3.00;;;;;;;;;;4974707;28;20027;-92
2024/02/24 02:47:29;;;;;;;;;;;;;;;;;;4974660;28;20058;-93
2024/02/24 02:49:55;;;;;;;5.82;3.15;;;;;;;;;;4974808;28;19929;-93
2024/02/24 02:52:21;;;;;;;4.45;2.83;;;;;;;;;;4974375;28;20085;-93
2024/02/24 02:54:47;;;;;;;4.43;3.00;;;;;;;;;;4974616;28;20073;-92
2024/02/24 02:57:14;;;;;;;3.50;2.40;;;;;;;;;;4976167;28;20035;-93
2024/02/24 02:59:41;;;;;;;3.53;2.35;;;;;;;;;;4974476;28;20034;-93
2024/02/24 03:02:07;;;;;;;4.20;2.75;;;;;;;;;;4974651;28;20043;-93
2024/02/24 03:04:48;;;;;;;3.42;2.55;;;;;;;;;;4974421;28;20035;-93
2024/02/24 03:07:14;;;;;;;3.75;2.45;;;;;;;;;;4986103;28;20478;-93
2024/02/24 03:09:40;;;;;;;4.22;3.30;;;;;;;;;;4993807;28;20115;-93
2024/02/24 03:12:09;;;;;;;4.78;2.92;;;;;;;;;;4993625;28;20058;-93
2024/02/24 03:14:35;;;;;;;5.28;2.70;;;;;;;;;;5011559;23;20060;-93
2024/02/24 03:17:01;;;;;;;4.53;2.30;;;;;;;;;;4994490;28;20109;-94
2024/02/24 03:19:28;;;;;;;5.32;2.33;;;;;;;;;;4994690;28;20598;-92
2024/02/24 03:21:54;;;;;;;4.57;2.13;;;;;;;;;;4998102;28;20045;-93
2024/02/24 03:24:39;;;;;;;3.03;2.30;;;;;;;;;;4997446;28;20034;-93
2024/02/24 03:27:05;;;;;;;3.20;2.63;;;;;;;;;;4997671;28;20027;-93
2024/02/24 03:29:37;;;;;;;2.85;2.33;;;;;;;;;;5012963;28;20023;-93
2024/02/24 03:32:03;;;;;;;4.05;2.35;;;;;;;;;;4991939;28;20042;-92
2024/02/24 03:34:41;;;;;;;3.67;2.40;;;;;;;;;;4977507;28;20073;-93
2024/02/24 03:37:07;;;;;;;3.20;2.40;;;;;;;;;;4993928;28;20061;-93
2024/02/24 03:39:33;;;;;;;3.92;3.00;;;;;;;;;;4997097;28;20033;-93
2024/02/24 03:41:59;;;;;;;3.97;2.72;;;;;;;;;;4996767;28;20042;-93
2024/02/24 03:44:40;;;;;;;4.07;2.85;;;;;;;;;;4996776;28;20105;-93
2024/02/24 03:47:06;;;;;;;3.33;2.03;;;;;;;;;;4996872;28;20030;-93
2024/02/24 03:49:32;;;;;;;3.17;2.33;;;;;;;;;;4996981;28;20030;-93
2024/02/24 03:51:58;;;;;;;3.25;2.35;;;;;;;;;;4993526;28;20022;-94
2024/02/24 03:57:28;;;;;;;4.63;2.37;;;;;;;;;;4998033;28;20494;-93
2024/02/24 03:59:54;;;;;;;2.92;2.45;;;;;;;;;;4996255;28;20273;-93
2024/02/24 04:02:21;;;;;;;3.28;2.60;;;;;;;;;;4996133;28;20044;-92
2024/02/24 04:04:47;;;;;;;3.90;3.45;;;;;;;;;;4983110;28;20019;-92
2024/02/24 04:07:14;;;;;;;2.90;2.20;;;;;;;;;;4996708;28;20026;-93
2024/02/24 04:09:40;;;;;;;3.05;2.30;;;;;;;;;;5000489;28;20463;-92
2024/02/24 04:12:16;;;;;;;3.58;2.10;;;;;;;;;;4996719;28;20061;-93
2024/02/24 04:14:48;;;;;;;2.80;2.17;;;;;;;;;;4996358;28;20050;-92
2024/02/24 04:17:14;;;;;;;2.63;2.28;;;;;;;;;;4996193;28;20037;-92
2024/02/24 04:19:55;;;;;;;3.38;2.80;;;;;;;;;;5024836;23;20042;-92
2024/02/24 04:22:27;;;;;;;3.90;2.65;;;;;;;;;;5032474;28;20042;-93
2024/02/24 04:24:59;;;;;;;2.80;2.20;;;;;;;;;;5032296;28;20022;-92
2024/02/24 04:27:25;;;;;;;2.58;1.83;;;;;;;;;;5033127;28;20502;-92
2024/02/24 04:29:51;;;;;;;2.70;2.47;;;;;;;;;;5032323;28;20026;-92
2024/02/24 04:35:21;;;;;;;2.58;1.90;;;;;;;;;;5623475;23;20252;-91
2024/02/24 04:37:47;;;;;;;2.72;2.00;;;;;;;;;;4980046;28;20023;-91
2024/02/24 04:43:17;;;;;;;2.65;2.42;;;;;;;;;;4997397;28;20603;-94
2024/02/24 04:45:46;;;;;;;2.25;1.80;;;;;;;;;;4980210;28;20027;-92
2024/02/24 04:48:12;;;;;;;2.08;1.65;;;;;;;;;;4987851;28;20014;-91
2024/02/24 04:50:44;;;;;;;2.03;1.52;;;;;;;;;;5003028;28;20027;-89
2024/02/24 04:53:11;;;;;;;2.78;2.22;;;;;;;;;;4993293;28;20065;-93
2024/02/24 04:55:38;;;;;;;2.38;1.88;;;;;;;;;;4987817;28;20477;-91
2024/02/24 05:00:40;;;;;;;2.35;1.63;;;;;;;;;;5056493;23;20058;-91
2024/02/24 05:03:06;;;;;;;2.03;1.45;;;;;;;;;;4981070;28;20026;-92
2024/02/24 05:05:32;;;;;;;2.67;1.88;;;;;;;;;;4979617;28;20022;-91
2024/02/24 05:08:01;;;;;;;2.65;1.60;;;;;;;;;;4979420;28;20125;-92
2024/02/24 05:10:31;;;;;;;2.28;1.75;;;;;;;;;;4979266;28;20057;-91
2024/02/24 05:12:57;;;;;;;2.25;1.50;;;;;;;;;;4979271;28;20331;-92
2024/02/24 05:15:23;;;;;;;2.03;1.30;;;;;;;;;;4979205;28;20065;-91
2024/02/24 05:17:52;;;;;;;1.85;1.45;;;;;;;;;;4978887;28;20026;-90
2024/02/24 05:22:54;;;;;;;4.65;1.35;;;;;;;;;;5011802;23;20089;-91
2024/02/24 05:25:30;;;;;;;2.65;1.70;;;;;;;;;;4995320;28;20380;-91
2024/02/24 05:28:21;;;;;;;1.88;1.38;;;;;;;;;;4995043;28;20495;-92
2024/02/24 05:30:54;;;;;;;3.05;1.60;;;;;;;;;;4993748;28;20041;-92
2024/02/24 05:33:26;;;;;;;2.42;1.60;;;;;;;;;;4995503;28;20058;-93
2024/02/24 05:35:52;;;;;;;2.13;1.48;;;;;;;;;;4997236;28;20088;-90
2024/02/24 05:38:21;;;;;;;3.08;1.60;;;;;;;;;;5011595;28;20033;-91
2024/02/24 05:40:50;;;;;;;2.00;1.50;;;;;;;;;;5018473;28;20034;-92
2024/02/24 05:43:19;;;;;;;2.47;1.95;;;;;;;;;;4998267;28;20034;-93
2024/02/24 05:45:45;;;;;;;2.22;1.40;;;;;;;;;;4996404;28;20030;-92
2024/02/24 05:48:11;;;;;;;2.80;1.30;;;;;;;;;;4994786;28;20037;-93
2024/02/24 05:51:04;;;;;;;1.77;1.35;;;;;;;;;;4994600;28;20030;-93
2024/02/24 05:53:31;;;;;;;1.98;1.40;;;;;;;;;;4994231;28;20041;-93
2024/02/24 05:55:57;;;;;;;1.52;1.13;;;;;;;;;;4994873;28;20081;-92
2024/02/24 05:58:32;;;;;;;1.95;1.40;;;;;;;;;;4994627;28;20475;-92
2024/02/24 06:00:58;;;;;;;2.28;1.80;;;;;;;;;;4994648;28;20042;-91
2024/02/24 06:03:25;;;;;;;1.67;1.20;;;;;;;;;;4994518;28;20027;-91
2024/02/24 06:05:54;;;;;;;1.83;1.50;;;;;;;;;;4994082;28;20038;-92
2024/02/24 06:08:21;;;;;;;1.80;1.25;;;;;;;;;;4994264;28;20030;-93
2024/02/24 06:10:50;;;;;;;1.70;1.30;;;;;;;;;;4994228;28;20037;-93
2024/02/24 06:13:28;;;;;;;2.58;1.98;;;;;;;;;;4994244;28;20033;-92
2024/02/24 06:16:00;;;;;;;1.77;1.63;;;;;;;;;;4994631;28;20030;-91
2024/02/24 06:18:30;;;;;;;2.10;1.70;;;;;;;;;;4994484;28;20053;-91
2024/02/24 06:20:56;;;;;;;2.35;1.98;;;;;;;;;;4997098;28;20053;-90
2024/02/24 06:23:25;;;;;;;2.97;1.88;;;;;;;;;;4997008;28;20037;-93
2024/02/24 06:31:37;;;;;;;3.72;1.55;;;;;;;;;;5281643;23;20149;-90
2024/02/24 06:37:08;;;;;;;2.17;1.33;;;;;;;;;;4995623;28;20037;-93
2024/02/24 06:42:41;;;;;;;1.80;1.33;;;;;;;;;;4995416;28;20037;-92
2024/02/24 06:45:10;;;;;;;2.20;1.60;;;;;;;;;;4977314;28;20038;-94
2024/02/24 06:47:39;;;;;;;3.28;1.80;;;;;;;;;;4977880;28;20042;-92
2024/02/24 06:59:16;;;;;;;4.57;1.83;;;;;;;;;;4998907;28;20261;-92
2024/02/24 07:01:42;;;;;;;3.53;2.10;;;;;;;;;;4981691;28;20301;-92
2024/02/24 07:04:11;;;;;;;2.85;2.13;;;;;;;;;;4984078;28;20031;-90
2024/02/24 07:06:37;;;;;;;1.85;1.25;;;;;;;;;;4981928;28;20030;-92
2024/02/24 07:09:10;;;;;;;2.40;1.88;;;;;;;;;;4981788;28;20022;-91
2024/02/24 07:12:03;;;;;;;2.05;1.83;;;;;;;;;;4984764;28;20027;-96
2024/02/24 07:14:29;;;;;;;2.35;1.75;;;;;;;;;;4960441;28;20041;-92
2024/02/24 07:20:05;;;;;;;1.70;1.25;;;;;;;;;;5059447;23;20088;-95
2024/02/24 07:25:52;;;;;;;1.33;0.93;;;;;;;;;;5041750;23;20052;-92
2024/02/24 07:28:19;;;;;;;3.88;1.70;;;;;;;;;;5022844;28;20450;-93
2024/02/24 07:30:45;;;;;;;1.70;1.30;;;;;;;;;;5015420;28;20471;-90
2024/02/24 07:33:14;;;;;;;1.60;1.30;;;;;;;;;;5018128;28;20036;-91
2024/02/24 07:35:43;;;;;;;1.88;1.33;;;;;;;;;;5031155;28;20048;-88
2024/02/24 07:38:36;;;;;;;1.92;1.30;;;;;;;;;;5035235;28;20037;-89
2024/02/24 07:41:08;;;;;;;1.10;0.70;;;;;;;;;;5019219;28;20080;-91
2024/02/24 07:46:30;;;;;;;1.67;1.40;;;;;;;;;;5027162;28;20053;-89
2024/02/24 07:49:01;;;;;;;1.65;1.55;;;;;;;;;;5017306;28;20113;-89
2024/02/24 07:51:28;;;;;;;1.50;1.23;;;;;;;;;;5031739;28;20064;-89
2024/02/24 07:53:57;;;;;;;1.75;1.40;;;;;;;;;;5028216;28;20376;-90
2024/02/24 07:59:02;;;;;;;1.30;1.20;;;;;;;;;;5018434;23;20078;-92
2024/02/24 08:01:34;;;;;;;1.80;1.25;;;;;;;;;;4982022;28;20038;-90
2024/02/24 08:06:36;;;;;;;3.60;2.97;;;;;;;;;;5689178;23;20506;-91
2024/02/24 08:09:02;;;;;;;2.47;1.80;;;;;;;;;;5031482;23;20113;-90
2024/02/24 08:11:40;;;;;;;2.70;2.35;;;;;;;;;;4987782;28;20032;-90
2024/02/24 08:14:10;;;;;;;1.25;1.02;;;;;;;;;;4999746;28;20022;-91
2024/02/24 08:16:39;;;;;;;1.85;1.70;;;;;;;;;;4997483;28;20041;-93
2024/02/24 08:22:11;;;;;;;1.60;1.20;;;;;;;;;;5018410;28;20068;-91
2024/02/24 08:24:38;;;;;;;2.58;1.08;;;;;;;;;;4992986;28;20054;-93
2024/02/24 08:27:07;;;;;;;2.10;1.55;;;;;;;;;;4987781;28;20093;-90
2024/02/24 08:29:33;;;;;;;1.50;1.40;;;;;;;;;;4983442;28;20057;-91
2024/02/24 08:32:17;;;;;;;1.65;1.20;;;;;;;;;;4981381;28;20027;-92
2024/02/24 08:34:51;;;;;;;1.67;1.58;;;;;;;;;;4982161;28;20074;-91
2024/02/24 08:37:27;;;;;;;;;;;;;;;;;;4991722;28;20531;-92
2024/02/24 08:40:22;;;;;;;1.98;1.65;;;;;;;;;;4995056;28;19912;-92
2024/02/24 08:42:48;;;;;;;1.48;1.20;;;;;;;;;;4960683;28;20038;-92
2024/02/24 09:00:12;;;;;;;1.73;1.63;;;;;;;;;;5505342;23;19922;-92
2024/02/24 09:05:45;;;;;;;4.25;3.95;;;;;;;;;;4985176;28;20050;-95
2024/02/24 09:08:14;;;;;;;2.67;2.47;;;;;;;;;;4976818;28;20027;-90
2024/02/24 09:13:13;;;;;;;3.55;3.35;;;;;;;;;;4975815;28;20078;-93
2024/02/24 09:15:43;;;;;;;4.53;4.22;;;;;;;;;;4968336;28;20034;-92
2024/02/24 09:18:12;;;;;;;5.30;4.90;;;;;;;;;;4983077;28;20062;-91
2024/02/24 09:20:38;;;;;;;3.90;2.95;;;;;;;;;;4979422;28;20059;-91
2024/02/24 09:23:05;;;;;;;7.50;7.10;;;;;;;;;;4979255;28;20050;-92
2024/02/24 09:25:37;;;;;;;2.42;2.30;;;;;;;;;;4986324;28;20042;-92
2024/02/24 09:28:13;;;;;;;3.67;2.78;;;;;;;;;;4979124;28;20050;-93
2024/02/24 09:30:48;;;;;;;6.63;5.18;;;;;;;;;;4981355;28;20058;-94
2024/02/24 09:33:14;;;;;;;3.90;3.40;;;;;;;;;;4985101;28;20082;-93
2024/02/24 09:35:40;;;;;;;3.40;3.15;;;;;;;;;;4975317;28;20110;-91
2024/02/24 09:38:09;;;;;;;2.55;2.35;;;;;;;;;;4968795;28;20118;-93
2024/02/24 09:40:35;;;;;;;5.88;5.47;;;;;;;;;;4980286;28;20118;-92
2024/02/24 09:43:08;;;;;;;6.43;3.17;;;;;;;;;;4978475;28;20085;-93
2024/02/24 09:45:41;;;;;;;8.07;7.45;;;;;;;;;;4977774;28;20054;-92
2024/02/24 09:48:10;;;;;;;8.95;8.32;;;;;;;;;;4977771;28;20042;-90
2024/02/24 09:50:37;;;;;;;2.97;2.78;;;;;;;;;;4976566;28;20031;-90
2024/02/24 09:53:40;;;;;;;9.88;7.80;;;;;;;;;;4980700;28;20026;-92
2024/02/24 09:59:02;;;;;;;15.95;14.57;;;;;;;;;;4978189;28;20261;-90
2024/02/24 10:01:29;;;;;;;6.78;6.28;;;;;;;;;;4976810;28;20034;-90
2024/02/24 10:13:07;;;;;;;11.10;10.35;;;;;;;;;;4860053;29;20114;-91
2024/02/24 10:15:52;;;;;;;9.60;8.80;;;;;;;;;;4846635;29;20056;-92
2024/02/24 10:18:21;;;;;;;5.18;4.70;;;;;;;;;;4847868;29;20158;-93
2024/02/24 10:23:16;;;;;;;3.88;3.58;;;;;;;;;;4960304;29;20047;-90
2024/02/24 10:26:03;;;;;;;8.82;8.13;;;;;;;;;;4993176;28;20039;-90
2024/02/24 10:28:35;;;;;;;8.00;5.93;;;;;;;;;;4974847;29;20043;-93
2024/02/24 10:37:12;;;;;;;6.18;5.55;;;;;;;;;;4960075;29;20041;-92
2024/02/24 10:39:48;;;;;;;7.00;6.60;;;;;;;;;;4963791;28;20119;-95
2024/02/24 10:42:22;;;;;;;9.80;9.02;;;;;;;;;;4991838;28;20039;-92
2024/02/24 10:47:23;;;;;;;4.15;3.85;;;;;;;;;;5020650;23;20564;-94
2024/02/24 10:49:50;;;;;;;9.50;8.93;;;;;;;;;;5014659;28;20057;-92
2024/02/24 10:52:20;;;;;;;4.68;4.38;;;;;;;;;;5017805;28;20109;-95
2024/02/24 10:54:51;;;;;;;4.97;4.65;;;;;;;;;;5427918;23;20073;-92
2024/02/24 10:57:45;;;;;;;8.88;8.38;;;;;;;;;;5031193;28;20231;-92
2024/02/24 11:00:31;;;;;;;3.03;2.78;;;;;;;;;;4998576;28;20049;-95
2024/02/24 11:03:06;;;;;;;7.47;7.00;;;;;;;;;;4984964;28;20038;-91
2024/02/24 11:05:38;;;;;;;7.57;7.07;;;;;;;;;;4980328;28;20471;-92
2024/02/24 11:08:27;;;;;;;7.03;6.40;;;;;;;;;;5028172;28;20040;-91
2024/02/24 11:10:54;;;;;;;7.65;7.07;;;;;;;;;;4997868;28;20030;-90
2024/02/24 11:13:20;;;;;;;8.48;7.97;;;;;;;;;;4998554;28;20030;-90
2024/02/24 11:15:54;;;;;;;9.48;8.82;;;;;;;;;;4990577;28;20027;-90
2024/02/24 11:18:40;;;;;;;10.38;9.70;;;;;;;;;;4999246;28;20494;-91
2024/02/24 11:21:08;;;;;;;8.65;8.15;;;;;;;;;;5000695;28;20606;-87
2024/02/24 11:23:54;;;;;;;2.90;2.70;;;;;;;;;;5017371;28;20117;-91
2024/02/24 11:26:31;;;;;;;3.53;3.28;;;;;;;;;;5015797;28;20025;-92
2024/02/24 11:29:02;;;;;;;9.48;8.88;;;;;;;;;;5030777;28;20042;-92
2024/02/24 11:31:29;;;;;;;5.07;4.68;;;;;;;;;;5035618;28;20021;-92
2024/02/24 11:34:11;;;;;;;5.88;5.45;;;;;;;;;;5035410;28;20060;-91
2024/02/24 11:36:40;;;;;;;3.53;3.17;;;;;;;;;;5034512;28;20029;-91
2024/02/24 11:39:08;;;;;;;3.20;2.90;;;;;;;;;;5033300;28;20036;-91
2024/02/24 11:41:35;;;;;;;3.67;3.10;;;;;;;;;;5017366;28;20061;-90
2024/02/24 11:44:01;;;;;;;11.00;10.23;;;;;;;;;;5024419;28;20105;-90
2024/02/24 11:46:28;;;;;;;4.90;4.50;;;;;;;;;;5016617;28;20033;-90
2024/02/24 11:48:54;;;;;;;4.95;3.47;;;;;;;;;;5017655;28;20529;-89
2024/02/24 11:51:25;;;;;;;5.88;5.50;;;;;;;;;;5021930;28;20030;-90
2024/02/24 11:53:53;;;;;;;7.93;7.28;;;;;;;;;;5031085;28;20026;-87
2024/02/24 11:56:19;;;;;;;4.82;3.88;;;;;;;;;;5031592;28;20503;-89
2024/02/24 11:58:46;;;;;;;4.65;4.25;;;;;;;;;;5020845;28;20026;-91
2024/02/24 12:01:40;;;;;;;4.90;4.50;;;;;;;;;;5016400;28;20104;-90
2024/02/24 12:04:06;;;;;;;4.47;4.18;;;;;;;;;;5033119;28;20026;-89
2024/02/24 12:06:32;;;;;;;2.38;2.17;;;;;;;;;;5039530;28;20037;-91
2024/02/24 12:08:59;;;;;;;3.17;2.92;;;;;;;;;;5036345;28;20033;-90
2024/02/24 12:11:26;;;;;;;1.95;1.55;;;;;;;;;;5036291;28;20431;-92
2024/02/24 12:13:52;;;;;;;5.32;4.90;;;;;;;;;;5028394;28;20026;-92
2024/02/24 12:16:18;;;;;;;4.35;4.05;;;;;;;;;;5027040;28;20025;-92
2024/02/24 12:18:47;;;;;;;3.47;3.20;;;;;;;;;;5036300;28;20032;-92
2024/02/24 12:21:14;;;;;;;5.53;5.13;;;;;;;;;;5036344;28;20040;-90
2024/02/24 12:23:41;;;;;;;7.93;7.38;;;;;;;;;;5038215;28;20010;-92
2024/02/24 12:26:14;;;;;;;3.90;3.60;;;;;;;;;;5035631;28;20038;-90
2024/02/24 12:28:40;;;;;;;2.45;2.25;;;;;;;;;;5020720;28;20022;-91
2024/02/24 12:31:08;;;;;;;7.40;6.80;;;;;;;;;;5023496;28;20026;-89
2024/02/24 12:33:39;;;;;;;4.40;4.10;;;;;;;;;;5016741;28;20025;-90
2024/02/24 12:36:18;;;;;;;5.10;4.47;;;;;;;;;;5033712;28;20021;-89
2024/02/24 12:38:45;;;;;;;21.30;12.98;;;;;;;;;;5029059;28;20049;-91
2024/02/24 12:41:12;;;;;;;4.38;4.03;;;;;;;;;;5030390;28;21560;-92
2024/02/24 12:49:32;;;;;;;2.75;2.13;;;;;;;;;;4998519;28;20061;-88
2024/02/24 12:51:59;;;;;;;3.70;3.40;;;;;;;;;;4976502;28;20096;-90
2024/02/24 12:54:48;;;;;;;4.57;4.18;;;;;;;;;;4979642;28;20117;-89
2024/02/24 12:57:20;;;;;;;6.30;5.80;;;;;;;;;;4971852;28;20034;-90
2024/02/24 12:59:48;;;;;;;4.43;3.73;;;;;;;;;;4979907;28;20026;-94
2024/02/24 13:02:28;;;;;;;4.15;3.75;;;;;;;;;;4997795;28;20434;-94
2024/02/24 13:05:00;;;;;;;3.30;2.55;;;;;;;;;;4982974;28;20030;-92
2024/02/24 13:07:29;;;;;;;4.90;2.80;;;;;;;;;;4980002;28;20124;-91
2024/02/24 13:09:55;;;;;;;4.93;4.47;;;;;;;;;;4979115;28;20034;-91
2024/02/24 13:12:21;;;;;;;5.22;4.72;;;;;;;;;;4979311;28;20525;-90
2024/02/24 13:17:55;;;;;;;3.85;3.05;;;;;;;;;;5016517;28;20084;-92
2024/02/24 13:23:11;;;;;;;3.42;2.65;;;;;;;;;;5007829;28;20030;-92
2024/02/24 13:26:09;;;;;;;4.60;3.70;;;;;;;;;;5019924;28;20482;-91
2024/02/24 13:31:15;;;;;;;5.93;5.43;;;;;;;;;;5089577;22;20054;-93
2024/02/24 13:39:48;;;;;;;7.57;3.30;;;;;;;;;;5000731;28;20092;-93
2024/02/24 13:42:18;;;;;;;4.60;3.72;;;;;;;;;;4999148;28;20034;-93
2024/02/24 13:51:01;;;;;;;5.07;3.17;;;;;;;;;;5017661;28;20033;-93
2024/02/24 13:53:40;;;;;;;5.70;3.95;;;;;;;;;;5279098;23;21017;-91
2024/02/24 13:56:06;;;;;;;4.22;3.08;;;;;;;;;;5024121;23;20058;-92
2024/02/24 13:58:32;;;;;;;8.05;3.90;;;;;;;;;;5019112;28;20530;-92
2024/02/24 14:00:58;;;;;;;5.50;4.22;;;;;;;;;;5013908;28;20038;-93
2024/02/24 14:03:24;;;;;;;4.20;3.72;;;;;;;;;;5017065;28;20375;-92
2024/02/24 14:05:57;;;;;;;4.32;3.50;;;;;;;;;;5004544;28;20037;-92
2024/02/24 14:08:24;;;;;;;5.38;4.30;;;;;;;;;;4997855;28;20552;-93
2024/02/24 14:25:26;;;;;;;6.68;3.45;;;;;;;;;;4986345;28;20117;-92
2024/02/24 14:28:02;;;;;;;;;;;;;;;;;;;;;
2024/02/24 14:33:53;;;;;;;6.97;3.75;;;;;;;;;;4943269;29;20039;-95
2024/02/24 14:36:29;;;;;;;4.80;2.80;;;;;;;;;;4910959;29;20036;-94
2024/02/24 14:39:01;;;;;;;3.90;3.03;;;;;;;;;;4911132;28;20057;-95
2024/02/24 14:41:33;;;;;;;4.70;3.42;;;;;;;;;;4964766;28;20039;-93
2024/02/24 14:44:06;;;;;;;6.88;3.63;;;;;;;;;;4981332;28;20054;-93
2024/02/24 14:46:32;;;;;;;6.82;4.55;;;;;;;;;;4962474;28;20031;-95
2024/02/24 14:48:58;;;;;;;8.27;6.03;;;;;;;;;;4970069;28;20064;-93
2024/02/24 14:51:28;;;;;;;6.00;4.05;;;;;;;;;;4980030;28;20022;-93
2024/02/24 14:54:01;;;;;;;13.02;8.10;;;;;;;;;;4966281;28;20029;-94
2024/02/24 14:56:47;;;;;;;8.32;6.28;;;;;;;;;;4962287;28;20059;-95
2024/02/24 14:59:14;;;;;;;17.67;9.82;;;;;;;;;;4959423;28;20038;-90
2024/02/24 15:01:40;;;;;;;16.42;6.80;;;;;;;;;;4960693;28;20069;-94
2024/02/24 15:04:06;;;;;;;20.50;7.72;;;;;;;;;;4966776;28;20094;-93
2024/02/24 15:06:32;;;;;;;35.42;13.30;;;;;;;;;;4975974;28;20031;-91
2024/02/24 15:09:01;;;;;;;20.42;8.45;;;;;;;;;;4976182;28;20031;-92
2024/02/24 15:11:27;;;;;;;23.35;9.32;;;;;;;;;;4960387;28;20030;-92
2024/02/24 15:16:34;;;;;;;15.68;8.98;;;;;;;;;;4992830;23;20047;-94
2024/02/24 15:22:04;;;;;;;17.92;9.23;;;;;;;;;;5201277;23;20120;-92
2024/02/24 15:24:52;;;;;;;24.90;11.93;;;;;;;;;;5274753;23;20034;-93
2024/02/24 15:27:26;;;;;;;32.13;15.15;;;;;;;;;;4991389;28;20030;-93
2024/02/24 15:29:52;;;;;;;20.10;10.52;;;;;;;;;;5001074;28;20053;-93
2024/02/24 15:32:27;;;;;;;14.02;7.18;;;;;;;;;;4999173;28;20030;-93
2024/02/24 15:34:53;;;;;;;13.85;7.13;;;;;;;;;;5104185;23;20496;-94
2024/02/24 15:37:29;;;;;;;8.80;5.63;;;;;;;;;;4979325;28;20454;-90
2024/02/24 15:40:14;;;;;;;12.20;6.10;;;;;;;;;;4980639;28;20034;-92
2024/02/24 15:42:40;;;;;;;9.80;6.30;;;;;;;;;;4999094;28;20125;-94
2024/02/24 15:45:09;;;;;;;9.30;5.88;;;;;;;;;;4991577;28;20094;-94
2024/02/24 15:47:35;;;;;;;11.52;6.97;;;;;;;;;;4990746;28;20030;-92
2024/02/24 15:50:05;;;;;;;11.70;7.82;;;;;;;;;;4999474;28;20026;-91
2024/02/24 15:52:38;;;;;;;14.75;8.05;;;;;;;;;;4995153;28;20022;-92
2024/02/24 16:01:14;;;;;;;12.88;5.65;;;;;;;;;;4996995;28;20069;-96
2024/02/24 16:03:47;;;;;;;13.80;8.38;;;;;;;;;;4999340;28;20038;-95
2024/02/24 16:06:35;;;;;;;13.27;9.23;;;;;;;;;;4981639;28;20122;-96
2024/02/24 16:09:03;;;;;;;13.18;8.40;;;;;;;;;;4987489;28;20019;-91
2024/02/24 16:11:40;;;;;;;17.60;10.02;;;;;;;;;;5149007;23;20141;-96
2024/02/24 16:14:06;;;;;;;15.50;10.68;;;;;;;;;;5015815;28;20034;-96
2024/02/24 16:19:46;;;;;;;16.10;9.63;;;;;;;;;;5105170;23;20060;-95
2024/02/24 16:22:24;;;;;;;20.27;10.68;;;;;;;;;;5003335;28;20106;-94
2024/02/24 16:31:08;;;;;;;16.98;9.35;;;;;;;;;;5007349;28;20057;-96
2024/02/24 16:34:01;;;;;;;15.15;9.20;;;;;;;;;;4971854;28;20114;-95
2024/02/24 16:36:36;;;;;;;18.55;9.43;;;;;;;;;;4945574;29;20052;-96
2024/02/24 16:39:09;;;;;;;17.40;11.32;;;;;;;;;;4942555;29;20538;-93
2024/02/24 16:41:36;;;;;;;36.17;20.45;;;;;;;;;;4940766;29;20178;-92
2024/02/24 16:44:03;;;;;;;54.00;28.90;;;;;;;;;;4940693;29;20042;-96
2024/02/24 16:46:32;;;;;;;56.60;33.67;;;;;;;;;;4941515;29;20059;-94
2024/02/24 16:48:59;;;;;;;64.68;36.13;;;;;;;;;;4926960;29;20039;-92
2024/02/24 16:51:25;;;;;;;49.95;27.80;;;;;;;;;;4942547;29;20536;-92
2024/02/24 16:56:31;;;;;;;51.67;26.58;;;;;;;;;;5126920;23;20531;-94
2024/02/24 16:59:14;;;;;;;62.88;30.88;;;;;;;;;;4963740;28;20531;-96
2024/02/24 17:01:40;;;;;;;71.75;34.83;;;;;;;;;;4939972;29;20531;-94
2024/02/24 17:04:07;;;;;;;60.67;29.27;;;;;;;;;;4955924;28;20054;-93
2024/02/24 17:06:36;;;;;;;62.28;31.23;;;;;;;;;;4960832;28;20094;-94
2024/02/24 17:09:08;;;;;;;64.03;32.50;;;;;;;;;;4963698;28;20062;-96
2024/02/24 17:11:46;;;;;;;61.83;30.35;;;;;;;;;;4960058;28;20039;-96
2024/02/24 17:17:03;;;;;;;62.13;29.35;;;;;;;;;;5103382;23;20058;-94
2024/02/24 17:19:35;;;;;;;46.58;22.55;;;;;;;;;;4987096;28;20030;-93
2024/02/24 17:22:01;;;;;;;42.42;22.63;;;;;;;;;;4990477;28;20049;-92
2024/02/24 17:24:28;;;;;;;41.72;22.42;;;;;;;;;;4998297;28;20052;-93
2024/02/24 17:26:55;;;;;;;25.02;14.60;;;;;;;;;;4998389;28;20053;-92
2024/02/24 17:29:22;;;;;;;28.52;15.32;;;;;;;;;;4984189;28;20038;-91
2024/02/24 17:31:57;;;;;;;23.40;14.68;;;;;;;;;;4983158;28;20091;-90
2024/02/24 17:34:33;;;;;;;23.85;14.60;;;;;;;;;;5002132;23;20141;-93
2024/02/24 17:37:08;;;;;;;24.48;14.57;;;;;;;;;;4997281;28;20034;-94
2024/02/24 17:39:40;;;;;;;24.55;14.73;;;;;;;;;;4997884;28;20037;-91
2024/02/24 17:42:07;;;;;;;20.80;13.38;;;;;;;;;;4998165;28;20038;-90
2024/02/24 17:44:39;;;;;;;24.75;14.88;;;;;;;;;;4997848;28;20018;-92
2024/02/24 17:47:05;;;;;;;33.42;16.27;;;;;;;;;;4998118;28;20030;-91
2024/02/24 17:49:37;;;;;;;29.45;16.23;;;;;;;;;;4998376;28;20021;-92
2024/02/24 17:52:19;;;;;;;23.30;13.13;;;;;;;;;;4997455;28;20033;-88
2024/02/24 17:54:55;;;;;;;;;;;;;;;;;;;;;
2024/02/24 17:57:28;;;;;;;22.70;14.13;;;;;;;;;;5015402;28;20040;-93
2024/02/24 17:59:54;;;;;;;;;;;;;;;;;;4997164;28;20041;-90
2024/02/24 18:02:22;;;;;;;23.83;14.07;;;;;;;;;;4993710;28;19921;-90
2024/02/24 18:05:17;;;;;;;23.30;14.35;;;;;;;;;;4977344;28;20041;-93
2024/02/24 18:07:43;;;;;;;19.98;12.95;;;;;;;;;;4926164;28;20032;-90